Time;durP1;ratioP1;P1;durP2;ratioP2;P2;SDS_P1;SDS_P2;PMS_P1;PMS_P2;Temp;Humidity;BMP_temperature;BMP_pressure;BME280_temperature;BME280_humidity;BME280_pressure;Samples;Min_cycle;Max_cycle;Signal;HPM_P1;HPM_P2
2022/08/16 00:30:12;;;;;;;13.23;2.58;;;;;;;19.78;100.00;93947.84;5967887;23;20342;-85
2022/08/16 00:32:39;;;;;;;6.15;2.72;;;;;;;19.67;100.00;93943.34;4947629;28;20355;-88
2022/08/16 00:35:09;;;;;;;8.68;2.63;;;;;;;19.66;100.00;93941.78;4963005;28;20030;-87
2022/08/16 00:37:35;;;;;;;10.65;3.50;;;;;;;19.23;100.00;93933.31;4963064;28;20049;-87
2022/08/16 00:40:00;;;;;;;10.32;2.80;;;;;;;19.06;100.00;93927.88;4951040;29;20031;-92
2022/08/16 00:42:38;;;;;;;;;;;;;;;;;;;;;
2022/08/16 00:45:32;;;;;;;13.38;3.17;;;;;;;18.90;100.00;93921.66;4982553;28;20026;-88
2022/08/16 00:47:57;;;;;;;10.80;2.63;;;;;;;18.99;100.00;93922.34;4974484;28;20034;-88
2022/08/16 00:50:27;;;;;;;8.23;2.28;;;;;;;19.23;100.00;93917.38;4980466;28;20113;-88
2022/08/16 00:52:55;;;;;;;14.05;2.35;;;;;;;19.26;100.00;93922.78;4966706;28;20305;-88
2022/08/16 00:55:23;;;;;;;8.77;2.60;;;;;;;19.25;100.00;93917.81;4982729;28;20126;-88
2022/08/16 00:57:50;;;;;;;7.82;2.50;;;;;;;19.28;100.00;93915.25;4966294;28;20077;-88
2022/08/16 01:00:16;;;;;;;8.65;3.03;;;;;;;19.39;100.00;93910.25;4965813;28;20355;-88
2022/08/16 01:02:42;;;;;;;6.55;2.33;;;;;;;19.32;100.00;93908.16;4966374;28;20451;-88
2022/08/16 01:05:08;;;;;;;8.48;2.70;;;;;;;19.34;100.00;93905.94;4966244;28;20072;-89
2022/08/16 01:07:43;;;;;;;;;;;;;;;;;;;;;
2022/08/16 01:10:09;;;;;;;10.55;2.38;;;;;;;19.53;100.00;93901.16;4983374;28;20022;-89
2022/08/16 01:12:35;;;;;;;9.52;2.58;;;;;;;19.50;100.00;93902.59;4966087;28;20428;-88
2022/08/16 01:15:08;;;;;;;9.68;2.78;;;;;;;19.39;100.00;93904.94;4966141;28;20486;-88
2022/08/16 01:17:33;;;;;;;7.35;2.30;;;;;;;19.58;100.00;93903.59;4966965;28;20032;-88
2022/08/16 01:20:03;;;;;;;13.45;2.92;;;;;;;19.24;100.00;93898.47;4966018;28;20411;-89
2022/08/16 01:22:51;;;;;;;8.38;2.67;;;;;;;18.98;100.00;93904.84;4981689;28;20030;-89
2022/08/16 01:25:23;;;;;;;16.55;2.65;;;;;;;19.09;100.00;93905.19;4965317;28;20058;-89
2022/08/16 01:27:52;;;;;;;7.97;2.53;;;;;;;19.09;100.00;93902.53;4965750;28;20028;-89
2022/08/16 01:30:30;;;;;;;11.15;2.40;;;;;;;18.93;100.00;93892.56;4965669;28;20379;-89
2022/08/16 01:33:08;;;;;;;9.27;2.47;;;;;;;18.84;100.00;93893.78;4966057;28;20030;-89
2022/08/16 01:36:09;;;;;;;9.55;2.70;;;;;;;18.88;100.00;93892.78;4965743;28;20110;-89
2022/08/16 01:38:38;;;;;;;12.27;2.72;;;;;;;18.99;100.00;93895.81;4980967;28;20058;-89
2022/08/16 01:41:11;;;;;;;8.15;2.47;;;;;;;19.11;100.00;93902.22;4965226;28;20121;-88
2022/08/16 01:43:38;;;;;;;9.60;2.67;;;;;;;19.13;100.00;93906.06;4965569;28;20034;-89
2022/08/16 01:46:07;;;;;;;18.00;3.58;;;;;;;18.86;100.00;93897.63;4964869;28;20034;-89
2022/08/16 01:48:33;;;;;;;9.90;2.78;;;;;;;18.75;100.00;93902.63;4981255;28;20034;-88
2022/08/16 01:51:00;;;;;;;10.63;2.83;;;;;;;18.81;100.00;93905.81;4965366;28;20072;-89
2022/08/16 01:53:27;;;;;;;9.98;2.70;;;;;;;18.91;100.00;93904.63;4965418;28;20034;-88
2022/08/16 01:55:52;;;;;;;8.13;3.25;;;;;;;19.11;100.00;93910.19;4981324;28;20030;-89
2022/08/16 01:58:26;;;;;;;8.90;3.00;;;;;;;19.01;100.00;93906.88;4981322;28;20033;-89
2022/08/16 02:00:51;;;;;;;9.50;2.72;;;;;;;18.85;100.00;93913.91;4982313;28;20026;-88
2022/08/16 02:03:17;;;;;;;8.23;2.70;;;;;;;18.88;100.00;93910.59;4965295;28;20026;-89
2022/08/16 02:05:42;;;;;;;8.10;2.70;;;;;;;18.98;100.00;93923.44;4964955;28;20026;-90
2022/08/16 02:08:17;;;;;;;11.35;3.45;;;;;;;18.98;100.00;93914.69;4964912;28;20027;-88
2022/08/16 02:10:42;;;;;;;7.35;2.85;;;;;;;18.93;100.00;93920.97;4966188;28;20419;-89
2022/08/16 02:13:10;;;;;;;10.23;3.13;;;;;;;18.91;100.00;93923.19;4981488;28;20033;-88
2022/08/16 02:15:38;;;;;;;11.60;2.75;;;;;;;18.93;100.00;93924.41;4964675;28;20034;-89
2022/08/16 02:18:04;;;;;;;14.38;3.35;;;;;;;18.75;100.00;93918.53;4980964;28;20026;-89
2022/08/16 02:20:33;;;;;;;13.82;3.30;;;;;;;18.63;100.00;93921.97;4965036;28;20080;-89
2022/08/16 02:23:02;;;;;;;15.07;3.42;;;;;;;18.77;100.00;93915.56;4964894;28;20030;-88
2022/08/16 02:25:28;;;;;;;12.35;3.17;;;;;;;18.77;100.00;93920.88;4980774;28;20073;-89
2022/08/16 02:27:58;;;;;;;5.43;3.03;;;;;;;18.75;100.00;93920.44;4964795;28;20378;-88
2022/08/16 02:30:27;;;;;;;7.43;3.17;;;;;;;18.68;100.00;93928.16;4980908;28;20037;-88
2022/08/16 02:32:53;;;;;;;6.70;2.97;;;;;;;18.84;100.00;93929.03;4964832;28;20022;-87
2022/08/16 02:35:23;;;;;;;11.23;3.67;;;;;;;18.79;100.00;93932.72;4980306;28;20026;-87
2022/08/16 02:37:48;;;;;;;14.88;3.50;;;;;;;18.64;100.00;93931.47;4980968;28;20018;-86
2022/08/16 02:40:18;;;;;;;17.63;3.47;;;;;;;18.79;100.00;93924.75;4964744;28;20026;-87
2022/08/16 02:42:44;;;;;;;10.88;3.30;;;;;;;18.89;100.00;93922.75;4965314;28;20034;-89
2022/08/16 02:45:13;;;;;;;10.90;3.13;;;;;;;18.86;100.00;93924.19;4964334;28;20022;-88
2022/08/16 02:47:41;;;;;;;8.85;3.20;;;;;;;18.89;100.00;93922.75;4980840;28;20037;-89
2022/08/16 02:50:07;;;;;;;9.52;3.40;;;;;;;18.88;100.00;93929.16;4965211;28;20121;-89
2022/08/16 02:52:35;;;;;;;9.00;3.20;;;;;;;18.91;100.00;93931.16;4980993;28;20054;-89
2022/08/16 02:55:01;;;;;;;12.48;3.42;;;;;;;18.90;100.00;93938.34;4980471;28;20118;-89
2022/08/16 02:57:26;;;;;;;9.23;3.53;;;;;;;18.73;100.00;93930.59;4979923;28;20117;-88
2022/08/16 03:00:02;;;;;;;;;;;;;;;;;;;;;
2022/08/16 03:02:38;;;;;;;;;;;;;;;;;;;;;
2022/08/16 03:05:13;;;;;;;11.00;3.60;;;;;;;18.84;100.00;93941.56;4997786;28;20040;-89
2022/08/16 03:07:39;;;;;;;11.77;3.22;;;;;;;18.93;100.00;93935.03;4981488;28;20038;-89
2022/08/16 03:10:17;;;;;;;;;;;;;;;;;;;;;
2022/08/16 03:12:50;;;;;;;13.15;4.00;;;;;;;19.10;100.00;93932.53;4959937;28;20030;-89
2022/08/16 03:15:16;;;;;;;10.47;4.03;;;;;;;18.89;100.00;93938.69;4964688;28;20038;-88
2022/08/16 03:17:43;;;;;;;11.35;3.20;;;;;;;19.00;100.00;93941.69;4997032;28;20269;-88
2022/08/16 03:20:10;;;;;;;18.05;3.35;;;;;;;18.88;100.00;93953.06;4963983;28;20446;-88
2022/08/16 03:22:36;;;;;;;14.35;3.85;;;;;;;18.51;100.00;93956.41;4999555;28;20459;-88
2022/08/16 03:25:04;;;;;;;9.95;3.65;;;;;;;18.12;100.00;93950.53;4984356;28;20032;-89
2022/08/16 03:27:34;;;;;;;11.38;3.05;;;;;;;18.02;100.00;93956.97;4967330;28;20026;-89
2022/08/16 03:30:08;;;;;;;8.00;3.72;;;;;;;18.16;100.00;93954.84;4968160;28;20034;-89
2022/08/16 03:32:34;;;;;;;12.23;3.53;;;;;;;18.23;100.00;93957.78;4983733;28;20026;-88
2022/08/16 03:34:59;;;;;;;10.68;3.80;;;;;;;18.37;100.00;93962.78;4967940;28;20424;-88
2022/08/16 03:37:25;;;;;;;12.48;3.58;;;;;;;18.47;100.00;93955.53;4967271;28;20030;-88
2022/08/16 03:39:50;;;;;;;9.75;3.58;;;;;;;18.36;100.00;93958.56;4973971;28;20038;-88
2022/08/16 03:42:16;;;;;;;11.38;4.28;;;;;;;18.44;100.00;93961.50;4948574;28;20034;-88
2022/08/16 03:44:42;;;;;;;11.65;3.80;;;;;;;18.48;100.00;93954.41;4948610;28;20108;-88
2022/08/16 03:47:11;;;;;;;18.20;4.85;;;;;;;18.42;100.00;93955.72;4948120;28;20432;-88
2022/08/16 03:49:36;;;;;;;15.57;4.32;;;;;;;18.45;100.00;93957.72;4949036;28;20042;-88
2022/08/16 03:52:02;;;;;;;12.02;4.20;;;;;;;18.50;100.00;93958.28;4964413;28;20031;-89
2022/08/16 03:54:28;;;;;;;16.33;4.95;;;;;;;18.46;100.00;93965.34;4948057;28;20031;-88
2022/08/16 03:56:53;;;;;;;13.48;4.32;;;;;;;18.48;100.00;93960.47;4947848;28;20443;-88
2022/08/16 03:59:19;;;;;;;12.75;4.10;;;;;;;18.53;100.00;93966.69;4948201;28;20046;-87
2022/08/16 04:01:44;;;;;;;12.77;4.68;;;;;;;18.19;100.00;93972.00;4948347;28;20037;-89
2022/08/16 04:04:10;;;;;;;12.40;4.43;;;;;;;18.30;100.00;93969.72;4948145;28;20030;-88
2022/08/16 04:06:37;;;;;;;14.32;4.80;;;;;;;18.37;100.00;93965.44;4947797;28;20041;-88
2022/08/16 04:09:06;;;;;;;15.52;4.72;;;;;;;18.51;100.00;93975.75;4948289;28;20151;-88
2022/08/16 04:11:31;;;;;;;11.23;3.83;;;;;;;18.40;100.00;93968.53;4948182;28;20034;-89
2022/08/16 04:13:57;;;;;;;13.63;4.15;;;;;;;18.26;100.00;93979.44;4948102;28;20320;-88
2022/08/16 04:16:27;;;;;;;13.05;5.05;;;;;;;18.30;100.00;93973.16;4947530;28;20087;-89
2022/08/16 04:18:53;;;;;;;12.40;4.80;;;;;;;18.34;100.00;93989.16;4948584;28;20054;-88
2022/08/16 04:21:19;;;;;;;9.57;3.97;;;;;;;18.39;100.00;93986.34;4947856;28;20022;-88
2022/08/16 04:23:45;;;;;;;10.18;3.97;;;;;;;18.44;100.00;93988.00;4947778;28;20027;-88
2022/08/16 04:26:10;;;;;;;12.65;4.40;;;;;;;18.56;100.00;93987.25;4947364;28;20082;-87
2022/08/16 04:28:36;;;;;;;12.02;4.30;;;;;;;18.43;100.00;93986.44;4963452;28;20031;-88
2022/08/16 04:31:01;;;;;;;16.05;4.72;;;;;;;18.27;100.00;93984.38;4947690;28;20031;-89
2022/08/16 04:33:27;;;;;;;14.27;5.18;;;;;;;18.15;100.00;93982.47;4946170;28;20101;-88
2022/08/16 04:35:53;;;;;;;8.18;4.30;;;;;;;18.32;100.00;93980.75;4947420;28;20141;-88
2022/08/16 04:38:21;;;;;;;10.38;4.13;;;;;;;18.36;100.00;93979.78;4960902;28;20424;-88
2022/08/16 04:40:49;;;;;;;14.45;4.70;;;;;;;18.26;100.00;93982.84;4966799;28;20027;-88
2022/08/16 04:43:14;;;;;;;17.23;4.43;;;;;;;18.10;100.00;93993.28;4967060;28;20022;-88
2022/08/16 04:45:41;;;;;;;13.13;4.70;;;;;;;18.35;100.00;93991.50;4966492;28;20026;-88
2022/08/16 04:48:27;;;;;;;19.95;4.30;;;;;;;18.42;100.00;94000.78;4965914;28;20133;-88
2022/08/16 04:50:52;;;;;;;10.65;3.95;;;;;;;18.51;100.00;94001.50;4966977;28;20116;-90
2022/08/16 04:53:20;;;;;;;13.65;4.43;;;;;;;18.46;100.00;94004.38;4966537;28;20113;-88
2022/08/16 04:55:46;;;;;;;9.45;4.22;;;;;;;18.29;100.00;94006.06;4966181;28;20041;-89
2022/08/16 04:58:11;;;;;;;16.45;4.60;;;;;;;17.95;100.00;94011.28;4966394;28;20023;-89
2022/08/16 05:00:39;;;;;;;13.40;4.45;;;;;;;17.92;100.00;94001.31;4966696;28;20031;-87
2022/08/16 05:03:09;;;;;;;11.02;4.35;;;;;;;18.02;100.00;94007.31;4966926;28;20446;-87
2022/08/16 05:05:51;;;;;;;;;;;;;;;;;;;;;
2022/08/16 05:08:24;;;;;;;16.33;4.85;;;;;;;18.13;100.00;94005.09;4984003;28;20036;-90
2022/08/16 05:10:50;;;;;;;11.40;4.45;;;;;;;18.20;100.00;94011.41;4967388;28;20032;-89
2022/08/16 05:13:17;;;;;;;16.88;5.25;;;;;;;18.60;100.00;94017.34;4982299;28;20121;-89
2022/08/16 05:15:51;;;;;;;12.52;4.40;;;;;;;18.81;100.00;94011.22;4965927;28;20120;-89
2022/08/16 05:18:27;;;;;;;;;;;;;;;;;;;;;
2022/08/16 05:20:53;;;;;;;10.23;3.72;;;;;;;18.91;100.00;94014.22;4963808;28;20025;-88
2022/08/16 05:23:19;;;;;;;12.93;4.30;;;;;;;19.12;100.00;94016.03;4946751;28;20491;-89
2022/08/16 05:25:47;;;;;;;12.07;4.32;;;;;;;19.18;100.00;94024.56;4946483;28;20033;-88
2022/08/16 05:28:13;;;;;;;11.10;4.05;;;;;;;19.27;100.00;94032.44;4962689;28;20037;-87
2022/08/16 05:30:50;;;;;;;12.55;4.07;;;;;;;19.44;100.00;94031.47;4946669;28;20421;-90
2022/08/16 05:33:15;;;;;;;14.68;3.85;;;;;;;19.41;100.00;94032.13;4951621;29;20078;-88
2022/08/16 05:35:40;;;;;;;12.57;4.45;;;;;;;19.31;100.00;94036.00;4942823;29;20031;-88
2022/08/16 05:38:06;;;;;;;10.02;4.63;;;;;;;19.34;100.00;94038.00;4943120;29;20033;-89
2022/08/16 05:40:34;;;;;;;16.55;4.90;;;;;;;19.40;100.00;94036.66;4927348;29;20452;-88
2022/08/16 05:42:59;;;;;;;10.85;4.00;;;;;;;19.44;100.00;94039.44;4942681;29;20042;-88
2022/08/16 05:45:32;;;;;;;12.40;3.83;;;;;;;19.71;100.00;94040.63;4951810;28;20198;-87
2022/08/16 05:47:57;;;;;;;13.80;4.87;;;;;;;20.01;100.00;94037.78;4978085;28;20042;-87
2022/08/16 05:50:23;;;;;;;12.73;3.65;;;;;;;20.29;100.00;94036.25;4962439;28;20027;-87
2022/08/16 05:52:48;;;;;;;16.52;4.15;;;;;;;20.47;100.00;94026.88;4978015;28;20118;-87
2022/08/16 05:55:14;;;;;;;13.80;4.00;;;;;;;20.59;100.00;94030.63;4962032;28;20027;-88
2022/08/16 05:57:40;;;;;;;13.82;3.97;;;;;;;20.69;100.00;94021.34;4962291;28;20373;-87
2022/08/16 06:00:10;;;;;;;9.18;3.40;;;;;;;20.83;100.00;94026.34;4977879;28;20081;-86
2022/08/16 06:02:35;;;;;;;13.00;3.78;;;;;;;20.83;100.00;94034.31;4962310;28;20392;-86
2022/08/16 06:05:05;;;;;;;10.02;4.00;;;;;;;21.08;100.00;94040.28;4980769;28;20077;-86
2022/08/16 06:07:33;;;;;;;13.65;4.03;;;;;;;21.15;100.00;94023.69;4964555;28;20022;-86
2022/08/16 06:10:00;;;;;;;10.48;3.38;;;;;;;21.25;100.00;94031.19;4965224;28;20032;-87
2022/08/16 06:12:26;;;;;;;11.88;3.83;;;;;;;21.27;100.00;94030.81;4980970;28;20483;-86
2022/08/16 06:14:52;;;;;;;14.38;3.17;;;;;;;21.23;100.00;94038.75;4980488;28;20068;-86
2022/08/16 06:17:18;;;;;;;15.13;3.33;;;;;;;21.41;100.00;94035.75;4963933;28;20416;-86
2022/08/16 06:19:43;;;;;;;9.15;3.83;;;;;;;21.39;100.00;94040.66;4965052;28;20029;-85
2022/08/16 06:22:09;;;;;;;13.52;4.00;;;;;;;21.28;100.00;94038.47;4997871;28;20026;-87
2022/08/16 06:24:36;;;;;;;12.25;4.30;;;;;;;21.39;100.00;94037.97;4964842;28;20022;-86
2022/08/16 06:27:02;;;;;;;14.15;3.80;;;;;;;21.56;100.00;94045.63;4979993;28;20432;-86
2022/08/16 06:29:27;;;;;;;11.68;3.65;;;;;;;21.54;100.00;94031.88;4980547;28;20121;-87
2022/08/16 06:31:52;;;;;;;16.63;3.67;;;;;;;21.74;100.00;94034.63;4980531;28;20473;-87
2022/08/16 06:34:18;;;;;;;13.38;3.95;;;;;;;21.69;100.00;94037.56;4980561;28;20026;-86
2022/08/16 06:36:43;;;;;;;7.88;2.80;;;;;;;22.09;100.00;94046.41;4997224;28;20030;-85
2022/08/16 06:39:09;;;;;;;9.93;3.72;;;;;;;21.86;100.00;94047.84;4980127;28;20027;-85
2022/08/16 06:41:35;;;;;;;6.80;3.20;;;;;;;21.73;100.00;94043.72;4964263;28;20049;-87
2022/08/16 06:44:16;;;;;;;14.45;3.10;;;;;;;21.80;100.00;94051.88;4964567;28;20023;-86
2022/08/16 06:46:42;;;;;;;12.27;3.05;;;;;;;22.03;100.00;94041.34;4970537;28;20383;-86
2022/08/16 06:49:09;;;;;;;9.57;3.47;;;;;;;21.85;100.00;94056.19;4960567;28;20113;-86
2022/08/16 06:51:36;;;;;;;8.82;3.20;;;;;;;21.74;100.00;94047.94;4961027;28;20023;-87
2022/08/16 06:54:02;;;;;;;11.80;3.70;;;;;;;21.88;100.00;94050.94;4961012;28;20321;-86
2022/08/16 06:56:28;;;;;;;26.55;4.40;;;;;;;21.99;100.00;94047.72;4959708;28;20033;-86
2022/08/16 06:58:56;;;;;;;12.40;4.07;;;;;;;22.30;100.00;94044.19;4960610;28;20023;-86
2022/08/16 07:01:22;;;;;;;13.48;3.90;;;;;;;22.55;100.00;94046.59;4960665;28;20325;-86
2022/08/16 07:03:48;;;;;;;8.90;3.20;;;;;;;22.83;100.00;94047.53;4945043;28;20022;-87
2022/08/16 07:06:14;;;;;;;19.95;3.90;;;;;;;22.73;100.00;94046.19;4960476;28;20058;-86
2022/08/16 07:08:41;;;;;;;12.63;3.70;;;;;;;22.85;100.00;94043.34;4965815;28;20476;-86
2022/08/16 07:11:07;;;;;;;12.63;4.10;;;;;;;22.96;100.00;94046.25;4977736;28;20027;-86
2022/08/16 07:13:33;;;;;;;10.65;3.10;;;;;;;22.83;100.00;94042.94;4960644;28;20027;-86
2022/08/16 07:16:06;;;;;;;12.90;4.03;;;;;;;23.10;100.00;94039.59;4976507;28;20030;-87
2022/08/16 07:18:32;;;;;;;16.58;5.25;;;;;;;22.95;100.00;94043.91;4976952;28;20397;-87
2022/08/16 07:20:59;;;;;;;15.52;3.97;;;;;;;23.15;100.00;94052.66;4976808;28;20077;-86
2022/08/16 07:23:25;;;;;;;7.65;2.90;;;;;;;23.44;100.00;94053.16;4960820;28;20030;-86
2022/08/16 07:25:51;;;;;;;6.82;3.42;;;;;;;23.54;100.00;94051.78;4960545;28;20054;-87
2022/08/16 07:28:17;;;;;;;14.77;4.05;;;;;;;23.76;100.00;94047.53;4960472;28;20035;-87
2022/08/16 07:30:44;;;;;;;12.02;3.17;;;;;;;23.80;100.00;94050.28;4985114;28;20041;-87
2022/08/16 07:33:12;;;;;;;18.35;3.75;;;;;;;23.91;100.00;94051.22;4979952;28;20048;-87
2022/08/16 07:35:39;;;;;;;15.70;3.65;;;;;;;23.93;100.00;94051.63;4980197;28;20331;-86
2022/08/16 07:38:15;;;;;;;;;;;;;;;;;;;;;
2022/08/16 07:40:41;;;;;;;13.63;3.95;;;;;;;23.91;100.00;94048.53;4981125;28;20021;-87
2022/08/16 07:43:08;;;;;;;14.35;3.40;;;;;;;23.91;100.00;94053.88;4980160;28;20101;-88
2022/08/16 07:45:34;;;;;;;7.40;3.30;;;;;;;24.16;100.00;94050.03;4964127;28;20022;-87
2022/08/16 07:47:59;;;;;;;13.27;3.28;;;;;;;24.24;100.00;94043.63;4979753;28;20030;-88
2022/08/16 07:50:27;;;;;;;8.43;3.38;;;;;;;24.30;100.00;94058.25;4964362;28;20028;-87
2022/08/16 07:52:54;;;;;;;8.18;3.33;;;;;;;24.43;100.00;94059.56;4964045;28;20026;-87
2022/08/16 07:55:20;;;;;;;8.88;3.58;;;;;;;24.23;100.00;94061.59;4979508;28;20046;-87
2022/08/16 07:57:46;;;;;;;12.18;4.47;;;;;;;24.45;100.00;94053.06;4997001;28;20068;-85
2022/08/16 08:00:12;;;;;;;10.13;3.53;;;;;;;24.39;100.00;94058.75;4979273;28;20053;-85
2022/08/16 08:02:38;;;;;;;12.45;3.97;;;;;;;24.19;100.00;94060.00;4963425;28;20030;-86
2022/08/16 08:05:04;;;;;;;12.55;3.83;;;;;;;24.56;100.00;94064.69;4979451;28;20122;-86
2022/08/16 08:07:29;;;;;;;11.25;3.40;;;;;;;24.41;100.00;94055.69;4979172;28;20069;-86
2022/08/16 08:09:56;;;;;;;10.65;2.92;;;;;;;24.71;100.00;94063.72;4967174;28;20084;-86
2022/08/16 08:12:21;;;;;;;9.95;3.25;;;;;;;24.63;100.00;94054.06;4960139;29;20034;-86
2022/08/16 08:14:47;;;;;;;7.55;2.90;;;;;;;24.91;100.00;94058.22;4928656;29;20027;-86
2022/08/16 08:17:13;;;;;;;11.20;3.78;;;;;;;24.73;100.00;94067.94;4944017;29;20102;-85
2022/08/16 08:19:40;;;;;;;13.98;3.25;;;;;;;25.06;100.00;94066.41;4944681;29;20178;-85
2022/08/16 08:22:06;;;;;;;15.73;3.72;;;;;;;25.18;100.00;94066.13;4944280;29;20027;-85
2022/08/16 08:24:57;;;;;;;12.65;3.78;;;;;;;25.15;100.00;94066.09;4944464;29;20421;-87
2022/08/16 08:27:23;;;;;;;12.63;3.58;;;;;;;25.31;100.00;94063.94;4957018;28;20038;-88
2022/08/16 08:29:49;;;;;;;14.32;3.53;;;;;;;25.10;100.00;94067.97;4944038;29;20039;-85
2022/08/16 08:32:14;;;;;;;9.48;3.30;;;;;;;25.32;100.00;94073.56;4943932;29;20058;-86
2022/08/16 08:34:40;;;;;;;8.82;3.15;;;;;;;25.57;100.00;94066.91;4943901;29;20424;-85
2022/08/16 08:37:06;;;;;;;14.95;3.80;;;;;;;25.64;100.00;94066.94;4927736;29;20397;-86
2022/08/16 08:39:33;;;;;;;10.52;3.58;;;;;;;26.00;100.00;94072.56;4944003;29;20027;-85
2022/08/16 08:41:59;;;;;;;11.90;3.83;;;;;;;25.74;100.00;94073.53;4943932;29;20428;-86
2022/08/16 08:44:30;;;;;;;12.75;3.35;;;;;;;25.85;100.00;94070.94;4943740;29;20085;-86
2022/08/16 08:47:01;;;;;;;6.55;3.42;;;;;;;26.44;100.00;94073.59;4928005;29;20125;-86
2022/08/16 08:49:28;;;;;;;6.28;3.00;;;;;;;26.47;100.00;94080.94;4943663;29;20035;-85
2022/08/16 08:51:53;;;;;;;10.23;3.28;;;;;;;26.65;100.00;94080.22;4928208;29;20331;-86
2022/08/16 08:54:21;;;;;;;8.63;3.28;;;;;;;26.82;100.00;94084.88;4927879;29;20027;-86
2022/08/16 08:56:46;;;;;;;17.55;4.00;;;;;;;26.68;100.00;94085.63;4943209;29;20035;-83
2022/08/16 08:59:12;;;;;;;15.63;3.47;;;;;;;26.44;100.00;94089.72;4960630;29;20033;-83
2022/08/16 09:01:38;;;;;;;17.75;3.40;;;;;;;26.97;100.00;94084.97;4927769;29;20084;-83
2022/08/16 09:04:05;;;;;;;13.27;3.38;;;;;;;26.99;100.00;94095.34;4936399;28;20061;-84
2022/08/16 09:06:31;;;;;;;14.75;4.18;;;;;;;26.81;100.00;94098.69;4946301;28;20041;-85
2022/08/16 09:08:58;;;;;;;13.45;4.15;;;;;;;26.44;100.00;94099.69;4962420;28;20038;-86
2022/08/16 09:11:24;;;;;;;9.38;3.30;;;;;;;26.04;100.00;94105.56;4946730;28;20499;-86
2022/08/16 09:13:50;;;;;;;11.30;3.65;;;;;;;25.81;100.00;94105.78;4946530;28;20035;-85
2022/08/16 09:16:16;;;;;;;11.57;3.50;;;;;;;26.26;100.00;94108.44;4962011;28;20039;-86
2022/08/16 09:18:43;;;;;;;12.15;3.10;;;;;;;26.61;100.00;94112.44;4962356;28;20026;-83
2022/08/16 09:21:13;;;;;;;11.10;3.85;;;;;;;26.28;100.00;94102.66;4961616;28;20031;-87
2022/08/16 09:23:38;;;;;;;16.58;4.00;;;;;;;26.23;100.00;94109.94;4946415;28;20164;-86
2022/08/16 09:26:06;;;;;;;9.55;3.25;;;;;;;26.19;100.00;94103.00;4961785;28;20122;-86
2022/08/16 09:28:33;;;;;;;11.20;3.40;;;;;;;25.66;100.00;94099.53;4962548;28;20035;-87
2022/08/16 09:30:58;;;;;;;11.63;3.25;;;;;;;25.73;100.00;94102.28;4946798;28;20432;-88
2022/08/16 09:33:27;;;;;;;12.05;4.05;;;;;;;25.66;100.00;94104.88;4946937;28;20041;-87
2022/08/16 09:35:52;;;;;;;8.77;3.83;;;;;;;25.62;100.00;94110.25;4947051;28;20034;-88
2022/08/16 09:38:18;;;;;;;9.55;3.42;;;;;;;26.08;100.00;94106.34;4946829;28;20297;-89
2022/08/16 09:40:45;;;;;;;9.82;2.85;;;;;;;26.70;100.00;94108.66;4946819;28;20070;-87
2022/08/16 09:43:13;;;;;;;10.00;3.40;;;;;;;26.62;100.00;94111.28;4946484;28;20037;-89
2022/08/16 09:45:42;;;;;;;8.77;3.35;;;;;;;26.21;100.00;94109.56;4946991;28;20030;-89
2022/08/16 09:48:11;;;;;;;10.52;3.60;;;;;;;25.93;100.00;94118.13;4946837;28;20452;-89
2022/08/16 09:50:46;;;;;;;12.40;3.45;;;;;;;25.40;100.00;94117.28;4947152;28;20081;-90
2022/08/16 09:53:24;;;;;;;;;;;;;;;;;;;;;
2022/08/16 09:56:03;;;;;;;8.60;3.13;;;;;;;26.92;100.00;94125.66;4958677;29;20023;-88
2022/08/16 09:58:32;;;;;;;10.13;3.58;;;;;;;27.45;100.00;94134.22;4928743;29;20055;-89
2022/08/16 10:00:57;;;;;;;11.60;3.30;;;;;;;27.80;98.42;94128.16;4943308;29;20372;-88
2022/08/16 10:03:33;;;;;;;;;;;;;;;;;;;;;
2022/08/16 10:06:08;;;;;;;;;;;;;;;;;;;;;
2022/08/16 10:08:41;;;;;;;12.73;3.67;;;;;;;28.19;92.46;94121.25;4982434;28;20031;-90
2022/08/16 10:13:51;;;;;;;9.48;3.67;;;;;;;27.46;99.47;94119.63;4983680;28;20098;-87
2022/08/16 10:16:16;;;;;;;14.70;4.03;;;;;;;27.37;100.00;94114.63;4981008;28;20425;-89
2022/08/16 10:18:44;;;;;;;9.60;4.10;;;;;;;27.31;98.27;94116.16;4998304;28;20061;-88
2022/08/16 10:21:10;;;;;;;7.43;3.47;;;;;;;27.83;100.00;94115.06;4965738;28;20331;-92
2022/08/16 10:23:35;;;;;;;14.13;3.60;;;;;;;28.26;94.41;94117.00;4964874;28;20128;-90
2022/08/16 10:26:01;;;;;;;17.92;3.60;;;;;;;28.57;90.97;94117.31;4980718;28;20427;-87
2022/08/16 10:28:28;;;;;;;9.75;2.80;;;;;;;29.33;86.45;94125.84;4998259;28;20041;-88
2022/08/16 10:30:55;;;;;;;6.28;3.35;;;;;;;28.96;86.79;94132.59;4980583;28;20085;-90
2022/08/16 10:33:21;;;;;;;9.40;3.67;;;;;;;28.81;86.76;94125.72;4964756;28;20034;-89
2022/08/16 10:35:51;;;;;;;9.43;3.00;;;;;;;28.50;89.80;94128.88;4964588;28;20099;-90
2022/08/16 10:38:18;;;;;;;17.77;4.35;;;;;;;27.35;97.24;94125.78;4965083;28;20034;-89
2022/08/16 10:40:46;;;;;;;11.13;3.58;;;;;;;27.43;100.00;94131.94;4980953;28;20034;-89
2022/08/16 10:43:17;;;;;;;15.18;3.78;;;;;;;27.66;98.35;94126.22;4997850;28;20037;-88
2022/08/16 10:45:47;;;;;;;12.63;3.80;;;;;;;27.29;100.00;94121.91;4997826;28;20030;-87
2022/08/16 10:48:15;;;;;;;12.40;3.25;;;;;;;27.92;95.91;94124.31;4980934;28;20030;-89
2022/08/16 10:50:53;;;;;;;;;;;;;;;;;;;;;
2022/08/16 10:53:32;;;;;;;;;;;;;;;;;;;;;
2022/08/16 10:56:03;;;;;;;23.73;4.13;;;;;;;27.60;94.77;94121.59;4962086;28;20029;-89
2022/08/16 10:58:39;;;;;;;13.13;3.95;;;;;;;27.45;96.42;94131.53;4946268;28;20417;-92
2022/08/16 11:01:14;;;;;;;10.88;3.90;;;;;;;27.18;99.90;94127.28;4946774;28;20026;-89
2022/08/16 11:03:42;;;;;;;12.00;3.90;;;;;;;27.10;100.00;94141.81;4946799;28;20030;-90
2022/08/16 11:06:18;;;;;;;;;;;;;;;;;;;;;
2022/08/16 11:08:46;;;;;;;8.43;3.47;;;;;;;27.38;100.00;94129.59;4962250;28;20441;-90
2022/08/16 11:11:15;;;;;;;9.35;3.30;;;;;;;27.05;100.00;94139.50;4961211;28;20026;-90
2022/08/16 11:13:49;;;;;;;7.28;3.58;;;;;;;27.01;100.00;94144.13;4961322;28;20037;-90
2022/08/16 11:16:17;;;;;;;27.95;4.18;;;;;;;26.49;100.00;94136.94;4945460;28;20117;-92
2022/08/16 11:18:44;;;;;;;8.50;3.63;;;;;;;26.71;100.00;94140.50;4945432;28;20093;-89
2022/08/16 11:21:20;;;;;;;7.15;3.30;;;;;;;27.42;100.00;94141.16;4945627;28;20038;-93
2022/08/16 11:23:52;;;;;;;11.38;4.05;;;;;;;27.14;99.75;94129.19;4946327;28;20078;-88
2022/08/16 11:26:20;;;;;;;16.70;3.70;;;;;;;27.41;100.00;94128.88;4945134;28;20420;-90
2022/08/16 11:28:56;;;;;;;14.38;3.45;;;;;;;27.48;100.00;94126.16;4955810;28;20042;-91
2022/08/16 11:31:34;;;;;;;;;;;;;;;;;;;;;
2022/08/16 11:35:01;;;;;;;13.93;3.65;;;;;;;26.53;100.00;94135.03;4943137;29;20035;-88
2022/08/16 11:38:17;;;;;;;;;;;;;;;;;;;;;
2022/08/16 11:43:41;;;;;;;10.68;3.90;;;;;;;26.46;100.00;94125.00;4940466;29;20041;-89
2022/08/16 11:46:12;;;;;;;11.98;3.60;;;;;;;27.08;100.00;94134.16;4946459;29;20026;-89
2022/08/16 11:48:47;;;;;;;11.55;3.88;;;;;;;27.45;100.00;94139.59;4960886;29;20046;-90
2022/08/16 11:51:15;;;;;;;9.07;3.90;;;;;;;27.89;98.93;94135.84;4945064;29;20031;-87
2022/08/16 11:53:41;;;;;;;9.57;3.53;;;;;;;28.21;96.43;94139.69;4945568;29;20046;-86
2022/08/16 11:56:09;;;;;;;16.70;3.67;;;;;;;28.64;92.16;94141.56;4960841;29;20106;-89
2022/08/16 11:58:42;;;;;;;10.50;3.33;;;;;;;28.66;88.64;94131.16;4961034;29;20023;-88
2022/08/16 12:01:07;;;;;;;;;;;;;;;28.21;90.88;94137.00;4945836;29;20035;-89
2022/08/16 12:03:35;;;;;;;12.23;3.47;;;;;;;28.50;95.13;94136.94;4944910;29;20009;-89
2022/08/16 12:06:08;;;;;;;7.55;3.25;;;;;;;27.32;95.75;94141.91;4945021;29;20463;-90
2022/08/16 12:08:34;;;;;;;14.85;3.67;;;;;;;27.81;94.14;94134.31;4929248;29;20337;-92
2022/08/16 12:11:09;;;;;;;11.32;3.42;;;;;;;27.90;94.86;94131.22;4929353;29;20034;-89
2022/08/16 12:13:45;;;;;;;11.90;3.50;;;;;;;27.58;95.41;94124.66;4946265;29;20345;-89
2022/08/16 12:16:21;;;;;;;;;;;;;;;;;;;;;
2022/08/16 12:19:18;;;;;;;13.23;3.50;;;;;;;27.45;95.46;94135.00;4965142;28;20027;-87
2022/08/16 12:24:39;;;;;;;9.43;3.25;;;;;;;28.43;88.33;94131.59;4962987;28;20090;-88
2022/08/16 12:27:14;;;;;;;6.78;2.63;;;;;;;27.92;89.88;94134.31;4963581;28;20070;-90